createdAt,value
2019-05-06T00:00:34.087Z,12.15
2019-05-06T00:03:01.558Z,11.78
2019-05-06T00:05:28.849Z,11.00
2019-05-06T00:07:56.144Z,11.50
2019-05-06T00:10:24.583Z,11.38
2019-05-06T00:12:53.543Z,11.30
2019-05-06T00:15:20.906Z,11.10
2019-05-06T00:17:48.225Z,11.70
2019-05-06T00:20:15.523Z,13.70
2019-05-06T00:22:43.581Z,12.03
2019-05-06T00:25:28.613Z,12.10
2019-05-06T00:28:09.353Z,10.98
2019-05-06T00:30:36.782Z,11.53
2019-05-06T00:33:04.426Z,12.58
2019-05-06T00:35:31.710Z,12.28
2019-05-06T00:37:59.001Z,11.80
2019-05-06T00:40:27.968Z,12.18
2019-05-06T00:42:56.911Z,10.93
2019-05-06T00:45:24.422Z,11.05
2019-05-06T00:47:53.501Z,11.78
2019-05-06T00:50:20.830Z,12.40
2019-05-06T00:52:48.897Z,10.88
2019-05-06T00:55:16.226Z,11.15
2019-05-06T00:57:44.110Z,10.90
2019-05-06T01:00:13.571Z,11.10
2019-05-06T01:02:40.892Z,11.45
2019-05-06T01:05:08.187Z,10.60
2019-05-06T01:07:35.515Z,10.43
2019-05-06T01:10:03.779Z,10.98
2019-05-06T01:12:31.291Z,11.20
2019-05-06T01:14:59.641Z,10.20
2019-05-06T01:17:26.972Z,10.65
2019-05-06T01:19:54.266Z,10.95
2019-05-06T01:22:21.574Z,11.48
2019-05-06T01:24:48.893Z,11.15
2019-05-06T01:27:16.189Z,10.53
2019-05-06T01:29:44.158Z,9.95
2019-05-06T01:32:11.494Z,10.70
2019-05-06T01:34:38.814Z,10.93
2019-05-06T01:37:06.168Z,10.70
2019-05-06T01:39:50.209Z,10.88
2019-05-06T01:42:22.114Z,11.43
2019-05-06T01:44:49.401Z,11.83
2019-05-06T01:47:16.719Z,10.78
2019-05-06T01:49:44.282Z,11.20
2019-05-06T01:52:11.638Z,11.50
2019-05-06T01:54:38.944Z,11.97
2019-05-06T01:57:06.240Z,11.43
2019-05-06T01:59:34.226Z,11.63
2019-05-06T02:02:04.196Z,10.72
2019-05-06T02:04:30.540Z,11.30
2019-05-06T02:06:57.831Z,11.60
2019-05-06T02:09:25.135Z,10.78
2019-05-06T02:11:53.680Z,11.18
2019-05-06T02:14:21.062Z,10.98
2019-05-06T02:16:48.352Z,10.98
2019-05-06T02:19:15.666Z,11.05
2019-05-06T02:21:47.339Z,10.63
2019-05-06T02:24:16.307Z,10.40
2019-05-06T02:26:43.767Z,11.57
2019-05-06T02:29:12.730Z,10.65
2019-05-06T02:31:50.194Z,10.78
2019-05-06T02:34:25.545Z,11.33
2019-05-06T02:37:00.350Z,10.40
2019-05-06T02:39:27.618Z,11.45
2019-05-06T02:41:55.254Z,11.12
2019-05-06T02:44:23.962Z,10.90
2019-05-06T02:46:53.461Z,10.75
2019-05-06T02:49:25.078Z,20.62
2019-05-06T02:51:53.460Z,17.23
2019-05-06T02:54:23.481Z,12.33
2019-05-06T02:56:52.908Z,11.68
2019-05-06T02:59:18.868Z,10.65
2019-05-06T03:01:46.184Z,10.30
2019-05-06T03:04:13.478Z,9.93
2019-05-06T03:06:44.374Z,10.70
2019-05-06T03:09:13.129Z,10.90
2019-05-06T03:11:38.674Z,10.68
2019-05-06T03:14:06.008Z,11.50
2019-05-06T03:16:33.592Z,9.95
2019-05-06T03:19:03.939Z,11.10
2019-05-06T03:21:37.094Z,10.32
2019-05-06T03:24:16.718Z,10.55
2019-05-06T03:26:44.042Z,10.60
2019-05-06T03:29:13.684Z,10.20
2019-05-06T03:31:45.765Z,10.90
2019-05-06T03:34:35.979Z,11.35
2019-05-06T03:36:41.195Z,11.95
2019-05-06T03:39:07.683Z,10.72
2019-05-06T03:41:35.010Z,11.73
2019-05-06T03:44:03.344Z,11.40
2019-05-06T03:46:33.667Z,11.38
2019-05-06T03:49:08.886Z,11.08
2019-05-06T03:51:36.197Z,11.95
2019-05-06T03:54:03.578Z,11.57
2019-05-06T03:56:33.724Z,12.10
2019-05-06T03:59:02.693Z,11.45
2019-05-06T04:01:28.822Z,12.43
2019-05-06T04:03:57.447Z,11.60
2019-05-06T04:06:24.822Z,11.75
2019-05-06T04:08:53.017Z,11.10
2019-05-06T04:11:22.653Z,11.70
2019-05-06T04:13:49.271Z,10.70
2019-05-06T04:16:23.038Z,10.63
2019-05-06T04:18:57.397Z,10.45
2019-05-06T04:21:32.960Z,10.32
2019-05-06T04:24:04.673Z,10.80
2019-05-06T04:26:46.110Z,11.55
2019-05-06T04:29:13.099Z,11.30
2019-05-06T04:31:43.358Z,10.58
2019-05-06T04:34:14.677Z,11.55
2019-05-06T04:36:38.362Z,11.80
2019-05-06T04:39:05.730Z,11.97
2019-05-06T04:41:34.161Z,12.50
2019-05-06T04:44:02.870Z,11.88
2019-05-06T04:46:30.394Z,12.33
2019-05-06T04:48:57.695Z,12.95
2019-05-06T04:51:25.130Z,12.80
2019-05-06T04:53:53.752Z,12.20
2019-05-06T04:56:23.691Z,12.55
2019-05-06T04:58:50.062Z,12.53
2019-05-06T05:01:17.353Z,11.63
2019-05-06T05:03:44.680Z,10.43
2019-05-06T05:06:13.581Z,10.78
2019-05-06T05:08:42.745Z,10.93
2019-05-06T05:11:26.616Z,11.60
2019-05-06T05:13:58.279Z,10.85
2019-05-06T05:16:33.340Z,9.80
2019-05-06T05:19:05.110Z,10.90
2019-05-06T05:21:32.403Z,9.40
2019-05-06T05:24:01.905Z,10.03
2019-05-06T05:26:28.690Z,9.58
2019-05-06T05:28:55.984Z,8.90
2019-05-06T05:31:23.280Z,7.95
2019-05-06T05:33:52.469Z,10.10
2019-05-06T05:36:19.594Z,9.75
2019-05-06T05:38:46.917Z,10.10
2019-05-06T05:41:14.210Z,10.20
2019-05-06T05:43:45.961Z,10.60
2019-05-06T05:46:13.290Z,9.15
2019-05-06T05:48:44.973Z,10.45
2019-05-06T05:51:12.791Z,9.35
2019-05-06T05:53:40.149Z,11.38
2019-05-06T05:56:07.509Z,9.95
2019-05-06T05:58:34.821Z,10.65
2019-05-06T06:01:04.121Z,12.25
2019-05-06T06:03:32.451Z,12.30
2019-05-06T06:05:59.733Z,11.88
2019-05-06T06:08:27.023Z,10.95
2019-05-06T06:10:58.653Z,9.48
2019-05-06T06:13:25.939Z,9.68
2019-05-06T06:16:03.879Z,9.50
2019-05-06T06:18:44.626Z,9.63
2019-05-06T06:21:21.987Z,9.80
2019-05-06T06:23:46.868Z,9.23
2019-05-06T06:26:14.163Z,9.13
2019-05-06T06:28:42.544Z,9.20
2019-05-06T06:31:17.391Z,9.48
2019-05-06T06:33:44.780Z,8.83
2019-05-06T06:36:19.677Z,9.18
2019-05-06T06:38:57.606Z,10.13
2019-05-06T06:41:24.890Z,9.40
2019-05-06T06:43:53.830Z,9.55
2019-05-06T06:46:22.386Z,10.28
2019-05-06T06:48:49.811Z,9.98
2019-05-06T06:51:17.101Z,9.35
2019-05-06T06:53:44.431Z,10.05
2019-05-06T06:56:19.394Z,10.08
2019-05-06T06:59:02.401Z,9.93
2019-05-06T07:01:33.024Z,9.48
2019-05-06T07:04:04.691Z,9.13
2019-05-06T07:06:35.080Z,9.73
2019-05-06T07:09:02.752Z,9.48
2019-05-06T07:11:30.012Z,10.25
2019-05-06T07:13:57.339Z,10.30
2019-05-06T07:16:24.618Z,9.10
2019-05-06T07:18:52.622Z,9.35
2019-05-06T07:21:22.476Z,9.73
2019-05-06T07:23:49.892Z,9.10
2019-05-06T07:26:18.841Z,9.23
2019-05-06T07:28:46.133Z,9.85
2019-05-06T07:31:21.977Z,9.70
2019-05-06T07:33:42.901Z,10.05
2019-05-06T07:36:10.311Z,9.70
2019-05-06T07:38:39.260Z,8.88
2019-05-06T07:41:08.214Z,10.00
2019-05-06T07:43:52.587Z,9.73
2019-05-06T07:46:37.955Z,11.12
2019-05-06T07:49:05.274Z,9.20
2019-05-06T07:51:32.570Z,9.45
2019-05-06T07:53:59.866Z,10.80
2019-05-06T07:56:27.184Z,9.85
2019-05-06T07:59:09.564Z,10.28
2019-05-06T08:01:37.558Z,10.18
2019-05-06T08:04:05.323Z,9.38
2019-05-06T08:06:32.613Z,8.95
2019-05-06T08:08:59.913Z,8.60
2019-05-06T08:11:27.212Z,10.20
2019-05-06T08:13:54.531Z,8.98
2019-05-06T08:16:22.616Z,9.50
2019-05-06T08:18:52.224Z,9.73
2019-05-06T08:21:22.364Z,10.18
2019-05-06T08:23:52.264Z,9.53
2019-05-06T08:26:22.239Z,10.13
2019-05-06T08:28:48.641Z,8.85
2019-05-06T08:31:17.589Z,10.00
2019-05-06T08:33:45.070Z,10.38
2019-05-06T08:36:15.003Z,10.43
2019-05-06T08:38:58.931Z,10.90
2019-05-06T08:41:26.394Z,10.45
2019-05-06T08:43:53.704Z,11.30
2019-05-06T08:46:23.253Z,10.98
2019-05-06T08:48:52.343Z,10.75
2019-05-06T08:51:22.367Z,10.88
2019-05-06T08:53:53.288Z,9.85
2019-05-06T08:56:22.024Z,10.00
2019-05-06T08:58:49.384Z,10.18
2019-05-06T09:01:22.405Z,8.40
2019-05-06T09:04:05.038Z,10.10
2019-05-06T09:06:29.231Z,9.28
2019-05-06T09:08:47.631Z,9.25
2019-05-06T09:11:14.920Z,10.03
2019-05-06T09:13:42.903Z,9.25
2019-05-06T09:16:12.807Z,9.00
2019-05-06T09:18:39.161Z,7.22
2019-05-06T09:21:06.478Z,7.20
2019-05-06T09:23:33.779Z,7.17
2019-05-06T09:26:02.652Z,5.85
2019-05-06T09:28:34.452Z,6.50
2019-05-06T09:31:09.445Z,5.58
2019-05-06T09:33:45.798Z,5.65
2019-05-06T09:36:13.096Z,5.80
2019-05-06T09:38:42.459Z,6.28
2019-05-06T09:41:09.348Z,5.97
2019-05-06T09:43:36.657Z,6.25
2019-05-06T09:46:03.941Z,5.50
2019-05-06T09:48:42.483Z,6.58
2019-05-06T09:51:10.110Z,5.25
2019-05-06T09:53:55.118Z,5.58
2019-05-06T09:56:26.777Z,4.90
2019-05-06T09:58:54.071Z,5.60
2019-05-06T10:01:22.532Z,5.35
2019-05-06T10:03:49.860Z,5.80
2019-05-06T10:06:17.159Z,5.12
2019-05-06T10:08:44.479Z,5.90
2019-05-06T10:11:11.769Z,6.15
2019-05-06T10:13:39.058Z,6.25
2019-05-06T10:16:06.386Z,5.90
2019-05-06T10:18:33.661Z,5.37
2019-05-06T10:21:00.955Z,6.33
2019-05-06T10:23:28.271Z,4.83
2019-05-06T10:25:55.598Z,5.50
2019-05-06T10:28:24.538Z,6.90
2019-05-06T10:30:51.851Z,5.40
2019-05-06T10:33:23.839Z,5.35
2019-05-06T10:35:52.956Z,5.55
2019-05-06T10:38:22.820Z,5.95
2019-05-06T10:41:00.779Z,5.55
2019-05-06T10:43:25.006Z,4.78
2019-05-06T10:45:52.312Z,4.53
2019-05-06T10:48:19.608Z,6.45
2019-05-06T10:50:48.554Z,5.35
2019-05-06T10:53:17.534Z,5.37
2019-05-06T10:55:53.627Z,5.60
2019-05-06T10:58:22.544Z,5.53
2019-05-06T11:00:52.869Z,5.92
2019-05-06T11:03:22.721Z,6.08
2019-05-06T11:05:50.213Z,5.00
2019-05-06T11:08:17.528Z,5.75
2019-05-06T11:10:45.557Z,5.35
2019-05-06T11:13:13.229Z,4.65
2019-05-06T11:15:43.343Z,4.85
2019-05-06T11:18:13.267Z,4.53
2019-05-06T11:20:39.332Z,4.78
2019-05-06T11:23:06.627Z,4.20
2019-05-06T11:25:33.919Z,6.00
2019-05-06T11:28:02.941Z,5.10
2019-05-06T11:30:37.716Z,5.20
2019-05-06T11:33:08.299Z,6.17
2019-05-06T11:35:53.538Z,6.90
2019-05-06T11:38:24.899Z,7.50
2019-05-06T11:40:53.000Z,6.75
2019-05-06T11:43:22.615Z,7.20
2019-05-06T11:45:49.539Z,5.92
2019-05-06T11:48:16.847Z,5.65
2019-05-06T11:50:45.775Z,5.67
2019-05-06T11:53:13.067Z,4.95
2019-05-06T11:55:40.391Z,6.58
2019-05-06T11:58:09.318Z,6.05
2019-05-06T12:00:38.274Z,6.83
2019-05-06T12:03:05.555Z,6.65
2019-05-06T12:05:33.060Z,8.35
2019-05-06T12:08:04.727Z,6.60
2019-05-06T12:10:29.371Z,6.75
2019-05-06T12:12:56.703Z,6.80
2019-05-06T12:15:24.000Z,6.47
2019-05-06T12:17:53.309Z,5.72
2019-05-06T12:20:22.188Z,5.45
2019-05-06T12:22:49.186Z,6.70
2019-05-06T12:25:16.476Z,5.78
2019-05-06T12:27:47.148Z,6.42
2019-05-06T12:30:15.284Z,4.80
2019-05-06T12:32:44.199Z,5.08
2019-05-06T12:35:12.483Z,4.47
2019-05-06T12:37:40.970Z,3.77
2019-05-06T12:40:08.314Z,5.00
2019-05-06T12:42:39.967Z,3.92
2019-05-06T12:45:14.656Z,3.00
2019-05-06T12:47:55.668Z,4.15
2019-05-06T12:50:22.973Z,4.40
2019-05-06T12:52:52.374Z,4.10
2019-05-06T12:55:22.806Z,4.58
2019-05-06T12:57:48.561Z,4.55
2019-05-06T13:00:15.857Z,3.50
2019-05-06T13:02:43.799Z,4.15
2019-05-06T13:05:12.615Z,3.90
2019-05-06T13:07:42.043Z,4.35
2019-05-06T13:10:09.393Z,4.15
2019-05-06T13:12:37.660Z,3.90
2019-05-06T13:15:08.115Z,4.10
2019-05-06T13:17:34.596Z,3.52
2019-05-06T13:20:01.925Z,3.42
2019-05-06T13:22:34.134Z,3.60
2019-05-06T13:25:03.877Z,3.00
2019-05-06T13:27:32.819Z,3.33
2019-05-06T13:30:02.015Z,2.83
2019-05-06T13:32:31.878Z,3.25
2019-05-06T13:34:59.262Z,2.60
2019-05-06T13:37:26.899Z,2.60
2019-05-06T13:39:54.251Z,3.50
2019-05-06T13:42:23.254Z,3.42
2019-05-06T13:44:50.538Z,3.40
2019-05-06T13:47:22.933Z,2.42
2019-05-06T13:49:54.771Z,2.42
2019-05-06T13:52:23.176Z,2.55
2019-05-06T13:54:52.822Z,2.65
2019-05-06T13:57:19.625Z,3.10
2019-05-06T13:59:46.910Z,2.40
2019-05-06T14:02:16.481Z,2.95
2019-05-06T14:04:44.454Z,1.80
2019-05-06T14:07:13.029Z,2.75
2019-05-06T14:09:43.518Z,2.85
2019-05-06T14:12:09.535Z,2.25
2019-05-06T14:14:36.847Z,2.50
2019-05-06T14:17:04.160Z,2.92
2019-05-06T14:19:33.232Z,2.50
2019-05-06T14:22:02.771Z,3.30
2019-05-06T14:24:29.326Z,3.55
2019-05-06T14:27:02.545Z,3.00
2019-05-06T14:29:47.859Z,2.90
2019-05-06T14:32:15.149Z,3.45
2019-05-06T14:34:43.310Z,3.80
2019-05-06T14:37:10.843Z,4.00
2019-05-06T14:39:50.140Z,2.95
2019-05-06T14:42:08.723Z,2.70
2019-05-06T14:44:36.039Z,2.70
2019-05-06T14:47:04.956Z,3.25
2019-05-06T14:49:32.698Z,2.80
2019-05-06T14:52:02.444Z,2.87
2019-05-06T14:54:28.898Z,2.80
2019-05-06T14:57:03.396Z,2.80
2019-05-06T14:59:32.814Z,8.38
2019-05-06T15:01:59.631Z,3.30
2019-05-06T15:04:26.951Z,3.27
2019-05-06T15:06:54.235Z,3.55
2019-05-06T15:09:22.596Z,4.30
2019-05-06T15:11:50.031Z,3.80
2019-05-06T15:14:17.408Z,2.83
2019-05-06T15:16:44.719Z,3.10
2019-05-06T15:19:12.822Z,3.15
2019-05-06T15:21:42.530Z,3.10
2019-05-06T15:24:09.273Z,3.00
2019-05-06T15:26:36.565Z,4.00
2019-05-06T15:29:03.862Z,3.60
2019-05-06T15:31:52.703Z,3.50
2019-05-06T15:34:26.609Z,3.62
2019-05-06T15:36:58.254Z,3.52
2019-05-06T15:39:25.567Z,3.30
2019-05-06T15:41:52.861Z,4.03
2019-05-06T15:44:20.141Z,3.20
2019-05-06T15:46:47.454Z,4.00
2019-05-06T15:49:14.745Z,3.70
2019-05-06T15:51:42.748Z,3.42
2019-05-06T15:54:10.145Z,3.27
2019-05-06T15:56:37.463Z,3.70
2019-05-06T15:59:04.757Z,3.65
2019-05-06T16:01:33.979Z,3.90
2019-05-06T16:04:01.003Z,3.83
2019-05-06T16:06:28.314Z,3.95
2019-05-06T16:08:55.594Z,3.70
2019-05-06T16:11:22.892Z,4.20
2019-05-06T16:13:50.211Z,3.60
2019-05-06T16:16:17.498Z,4.83
2019-05-06T16:18:44.790Z,5.00
2019-05-06T16:21:12.279Z,4.83
2019-05-06T16:23:46.918Z,6.10
2019-05-06T16:26:14.234Z,4.45
2019-05-06T16:28:41.742Z,5.80
2019-05-06T16:31:10.474Z,5.55
2019-05-06T16:33:37.834Z,4.92
2019-05-06T16:36:05.161Z,4.70
2019-05-06T16:38:32.813Z,5.40
2019-05-06T16:41:10.510Z,6.20
2019-05-06T16:43:29.102Z,4.78
2019-05-06T16:45:56.403Z,4.90
2019-05-06T16:48:23.690Z,5.33
2019-05-06T16:50:51.007Z,4.78
2019-05-06T16:53:18.298Z,4.80
2019-05-06T16:55:55.578Z,5.03
2019-05-06T16:58:38.323Z,5.47
2019-05-06T17:01:05.800Z,5.70
2019-05-06T17:03:37.633Z,4.78
2019-05-06T17:06:06.558Z,5.85
2019-05-06T17:08:36.542Z,6.42
2019-05-06T17:11:04.887Z,5.83
2019-05-06T17:13:34.022Z,6.03
2019-05-06T17:16:02.482Z,5.60
2019-05-06T17:18:29.651Z,6.42
2019-05-06T17:20:56.946Z,6.33
2019-05-06T17:23:24.258Z,5.95
2019-05-06T17:25:52.113Z,6.62
2019-05-06T17:28:22.272Z,6.92
2019-05-06T17:30:53.763Z,6.15
2019-05-06T17:33:33.434Z,6.25
2019-05-06T17:36:02.933Z,7.10
2019-05-06T17:38:32.122Z,6.22
2019-05-06T17:41:00.010Z,5.53
2019-05-06T17:43:27.298Z,5.90
2019-05-06T17:46:02.571Z,6.53
2019-05-06T17:48:32.501Z,6.10
2019-05-06T17:51:09.986Z,6.62
2019-05-06T17:53:38.414Z,6.40
2019-05-06T17:56:05.700Z,6.17
2019-05-06T17:58:33.322Z,6.97
2019-05-06T18:01:00.606Z,6.50
2019-05-06T18:03:27.907Z,6.17
2019-05-06T18:05:55.213Z,5.90
2019-05-06T18:08:23.020Z,6.60
2019-05-06T18:10:52.149Z,6.53
2019-05-06T18:13:19.251Z,6.20
2019-05-06T18:15:46.531Z,5.80
2019-05-06T18:18:13.827Z,6.12
2019-05-06T18:20:42.710Z,7.35
2019-05-06T18:23:10.127Z,7.30
2019-05-06T18:25:37.446Z,7.17
2019-05-06T18:28:04.723Z,6.90
2019-05-06T18:30:34.310Z,6.35
2019-05-06T18:33:02.279Z,7.15
2019-05-06T18:35:29.662Z,6.95
2019-05-06T18:37:56.941Z,7.30
2019-05-06T18:40:24.248Z,6.55
2019-05-06T18:42:52.529Z,6.60
2019-05-06T18:45:21.903Z,7.00
2019-05-06T18:47:48.769Z,7.17
2019-05-06T18:50:16.061Z,6.97
2019-05-06T18:52:43.358Z,7.90
2019-05-06T18:55:12.348Z,6.70
2019-05-06T18:57:39.682Z,7.30
2019-05-06T19:00:06.953Z,6.87
2019-05-06T19:02:34.235Z,7.28
2019-05-06T19:05:03.186Z,8.28
2019-05-06T19:07:33.115Z,7.90
2019-05-06T19:10:03.758Z,8.03
2019-05-06T19:12:39.891Z,8.25
2019-05-06T19:15:00.038Z,8.20
2019-05-06T19:17:27.325Z,8.23
2019-05-06T19:19:54.610Z,8.40
2019-05-06T19:22:22.868Z,9.68
2019-05-06T19:24:52.039Z,9.88
2019-05-06T19:27:19.527Z,9.25
2019-05-06T19:29:46.842Z,9.40
2019-05-06T19:32:14.160Z,10.48
2019-05-06T19:34:42.311Z,10.58
2019-05-06T19:37:09.775Z,9.70
2019-05-06T19:39:37.058Z,9.48
2019-05-06T19:42:05.126Z,10.08
2019-05-06T19:44:32.504Z,9.68
2019-05-06T19:46:59.785Z,9.48
2019-05-06T19:49:27.118Z,9.10
2019-05-06T19:51:54.398Z,9.93
2019-05-06T19:54:22.501Z,10.32
2019-05-06T19:56:49.902Z,9.40
2019-05-06T19:59:17.193Z,9.53
2019-05-06T20:01:44.514Z,9.65
2019-05-06T20:04:13.194Z,10.38
2019-05-06T20:06:42.249Z,10.05
2019-05-06T20:09:22.212Z,9.98
2019-05-06T20:11:51.940Z,9.80
2019-05-06T20:14:19.241Z,9.68
2019-05-06T20:16:46.576Z,10.15
2019-05-06T20:19:27.639Z,9.10
2019-05-06T20:21:42.800Z,10.13
2019-05-06T20:24:10.126Z,9.65
2019-05-06T20:26:37.414Z,10.28
2019-05-06T20:29:04.702Z,10.08
2019-05-06T20:31:32.242Z,9.93
2019-05-06T20:33:59.534Z,10.20
2019-05-06T20:36:26.863Z,10.53
2019-05-06T20:38:54.153Z,13.08
2019-05-06T20:41:22.197Z,16.17
2019-05-06T20:43:49.529Z,20.23
2019-05-06T20:46:16.823Z,15.80
2019-05-06T20:48:44.127Z,18.65
2019-05-06T20:51:12.354Z,15.80
2019-05-06T20:53:39.741Z,13.83
2019-05-06T20:56:07.051Z,12.68
2019-05-06T20:58:34.385Z,11.50
2019-05-06T21:01:02.988Z,11.55
2019-05-06T21:03:32.646Z,12.53
2019-05-06T21:05:59.267Z,12.58
2019-05-06T21:08:26.572Z,13.38
2019-05-06T21:10:53.894Z,12.82
2019-05-06T21:13:29.624Z,12.85
2019-05-06T21:15:50.162Z,13.58
2019-05-06T21:18:17.466Z,11.55
2019-05-06T21:20:44.794Z,11.88
2019-05-06T21:23:12.096Z,12.35
2019-05-06T21:25:39.406Z,11.80
2019-05-06T21:28:06.715Z,12.20
2019-05-06T21:30:34.011Z,12.70
2019-05-06T21:33:01.337Z,13.22
2019-05-06T21:35:28.655Z,12.40
2019-05-06T21:37:55.960Z,11.88
2019-05-06T21:40:23.263Z,12.80
2019-05-06T21:42:50.584Z,13.35
2019-05-06T21:45:17.953Z,13.30
2019-05-06T21:47:46.446Z,13.62
2019-05-06T21:50:13.859Z,12.50
2019-05-06T21:52:43.058Z,13.15
2019-05-06T21:55:10.118Z,13.32
2019-05-06T21:57:37.417Z,13.43
2019-05-06T22:00:06.080Z,12.65
2019-05-06T22:02:33.374Z,11.95
2019-05-06T22:05:02.668Z,12.63
2019-05-06T22:07:29.645Z,12.68
2019-05-06T22:09:56.967Z,13.78
2019-05-06T22:12:24.530Z,13.22
2019-05-06T22:14:53.019Z,14.58
2019-05-06T22:17:22.456Z,13.98
2019-05-06T22:19:49.319Z,13.75
2019-05-06T22:22:20.555Z,13.38
2019-05-06T22:24:48.086Z,14.60
2019-05-06T22:27:15.382Z,15.38
2019-05-06T22:29:42.804Z,15.40
2019-05-06T22:32:12.267Z,15.35
2019-05-06T22:34:39.053Z,14.58
2019-05-06T22:37:06.374Z,14.00
2019-05-06T22:39:34.248Z,15.20
2019-05-06T22:42:01.625Z,14.45
2019-05-06T22:44:28.911Z,14.65
2019-05-06T22:46:56.231Z,16.45
2019-05-06T22:49:23.522Z,15.40
2019-05-06T22:51:52.163Z,14.10
2019-05-06T22:54:19.552Z,13.50
2019-05-06T22:56:46.856Z,14.68
2019-05-06T22:59:14.156Z,15.23
2019-05-06T23:01:43.296Z,15.20
2019-05-06T23:04:11.571Z,16.37
2019-05-06T23:06:38.870Z,16.77
2019-05-06T23:09:07.266Z,16.17
2019-05-06T23:11:34.567Z,15.88
2019-05-06T23:14:02.718Z,17.12
2019-05-06T23:16:30.218Z,15.60
2019-05-06T23:18:57.510Z,16.10
2019-05-06T23:21:24.811Z,14.35
2019-05-06T23:23:54.473Z,16.05
2019-05-06T23:26:22.940Z,16.50
2019-05-06T23:28:52.522Z,14.23
2019-05-06T23:31:19.468Z,16.45
2019-05-06T23:33:46.784Z,15.43
2019-05-06T23:36:14.094Z,16.07
2019-05-06T23:39:01.405Z,16.23
2019-05-06T23:41:46.633Z,16.30
2019-05-06T23:44:45.447Z,16.42
2019-05-06T23:47:19.554Z,15.60
2019-05-06T23:50:04.887Z,15.80
2019-05-06T23:52:52.001Z,16.57
2019-05-06T23:55:37.268Z,16.90
2019-05-06T23:58:04.119Z,15.58
